Time;durP1;ratioP1;P1;durP2;ratioP2;P2;SDS_P1;SDS_P2;PMS_P1;PMS_P2;Temp;Humidity;BMP_temperature;BMP_pressure;BME280_temperature;BME280_humidity;BME280_pressure;Samples;Min_cycle;Max_cycle;Signal;HPM_P1;HPM_P2
2022/03/25 00:00:31;;;;;;;;;;;;;;;2.09;86.06;99418.25;1716777;83;20121;-71
2022/03/25 00:03:00;;;;;;;;;;;;;;;2.03;85.98;99420.11;1716941;83;20073;-70
2022/03/25 00:05:27;;;;;;;;;;;;;;;2.01;86.42;99417.39;1716973;83;20416;-71
2022/03/25 00:07:55;;;;;;;;;;;;;;;1.98;86.39;99412.77;1716850;83;20101;-70
2022/03/25 00:10:23;;;;;;;;;;;;;;;1.95;86.47;99413.30;1717005;83;20655;-70
2022/03/25 00:12:50;;;;;;;;;;;;;;;1.95;86.63;99418.71;1716934;83;20101;-70
2022/03/25 00:15:18;;;;;;;;;;;;;;;1.95;86.57;99419.25;1716986;83;20121;-70
2022/03/25 00:17:45;;;;;;;;;;;;;;;1.92;86.95;99413.82;1716946;83;20278;-71
2022/03/25 00:20:15;;;;;;;;;;;;;;;1.92;87.18;99416.53;1705251;83;20160;-69
2022/03/25 00:22:44;;;;;;;;;;;;;;;1.95;87.36;99416.01;1716904;83;21772;-70
2022/03/25 00:25:11;;;;;;;;;;;;;;;1.97;87.34;99418.45;1716669;83;20172;-70
2022/03/25 00:27:38;;;;;;;;;;;;;;;1.98;87.58;99418.19;1716674;83;20120;-70
2022/03/25 00:30:07;;;;;;;;;;;;;;;1.97;87.64;99420.63;1716851;83;20117;-71
2022/03/25 00:32:36;;;;;;;;;;;;;;;1.97;87.75;99423.33;1716899;83;20448;-71
2022/03/25 00:35:04;;;;;;;;;;;;;;;1.94;87.80;99425.74;1716686;83;21149;-69
2022/03/25 00:37:31;;;;;;;;;;;;;;;1.93;88.18;99423.58;1716964;83;20101;-70
2022/03/25 00:39:58;;;;;;;;;;;;;;;1.93;88.26;99418.70;1716866;83;20109;-70
2022/03/25 00:42:28;;;;;;;;;;;;;;;1.90;88.18;99424.09;1715646;83;20114;-70
2022/03/25 00:44:55;;;;;;;;;;;;;;;1.88;88.22;99428.14;1716817;83;20129;-69
2022/03/25 00:47:23;;;;;;;;;;;;;;;1.83;88.46;99435.69;1716962;83;21753;-70
2022/03/25 00:49:52;;;;;;;;;;;;;;;1.81;88.97;99428.91;1716923;82;20290;-68
2022/03/25 00:52:21;;;;;;;;;;;;;;;1.79;89.01;99427.81;1717093;83;20113;-68
2022/03/25 00:54:50;;;;;;;;;;;;;;;1.76;89.15;99431.58;1715479;83;20073;-69
2022/03/25 00:57:19;;;;;;;;;;;;;;;1.76;89.24;99431.05;1715126;83;20089;-69
2022/03/25 00:59:46;;;;;;;;;;;;;;;1.77;89.22;99430.50;1715085;83;21108;-70
2022/03/25 01:02:16;;;;;;;;;;;;;;;1.76;89.15;99428.34;1714987;83;20078;-69
2022/03/25 01:04:43;;;;;;;;;;;;;;;1.75;89.07;99429.95;1714974;83;20133;-69
2022/03/25 01:07:12;;;;;;;;;;;;;;;1.73;89.07;99429.43;1715036;83;20082;-69
2022/03/25 01:09:40;;;;;;;;;;;;;;;1.71;89.51;99431.04;1739624;81;20093;-69
2022/03/25 01:12:09;;;;;;;;;;;;;;;1.68;89.26;99428.04;1768081;80;20114;-69
2022/03/25 01:14:37;;;;;;;;;;;;;;;1.63;89.05;99429.63;1767836;80;20153;-69
2022/03/25 01:17:04;;;;;;;;;;;;;;;1.56;89.06;99436.34;1768074;81;20117;-69
2022/03/25 01:19:31;;;;;;;;;;;;;;;1.50;89.77;99438.73;1768021;80;20097;-68
2022/03/25 01:21:58;;;;;;;;;;;;;;;1.49;90.01;99446.56;1768100;81;20457;-68
2022/03/25 01:24:26;;;;;;;;;;;;;;;1.46;90.21;99453.31;1768281;80;21241;-68
2022/03/25 01:26:54;;;;;;;;;;;;;;;1.47;90.49;99451.42;1768074;80;20437;-69
2022/03/25 01:29:30;;;;;;;;;;;;;;;1.49;90.82;99450.09;1768088;81;20089;-69
2022/03/25 01:31:56;;;;;;;;;;;;;;;1.52;90.88;99454.16;1766115;81;20097;-70
2022/03/25 01:34:23;;;;;;;;;;;;;;;1.54;90.86;99454.19;1768240;80;20130;-70
2022/03/25 01:36:51;;;;;;;;;;;;;;;1.57;90.82;99456.91;1768127;81;21296;-70
2022/03/25 01:39:18;;;;;;;;;;;;;;;1.58;90.98;99453.95;1768003;80;20109;-69
2022/03/25 01:41:50;;;;;;;;;;;;;;;1.61;91.13;99460.73;1768105;80;20082;-67
2022/03/25 01:44:29;;;;;;;;;;;;;;;1.63;91.11;99462.64;1768003;81;20874;-68
2022/03/25 01:46:57;;;;;;;;;;;;;;;1.63;90.97;99470.22;1768216;81;20156;-68
2022/03/25 01:49:25;;;;;;;;;;;;;;;1.58;92.00;99466.66;1768047;81;22230;-68
2022/03/25 01:51:55;;;;;;;;;;;;;;;1.52;92.06;99471.75;1768099;80;20089;-69
2022/03/25 01:54:30;;;;;;;;;;;;;;;1.49;92.21;99480.38;1748921;81;20448;-69
2022/03/25 01:57:04;;;;;;;;;;;;;;;1.47;92.55;99485.23;1748410;81;20120;-68
2022/03/25 01:59:31;;;;;;;;;;;;;;;1.47;92.61;99489.30;1767129;81;20133;-68
2022/03/25 02:01:57;;;;;;;;;;;;;;;1.45;92.93;99493.61;1768212;81;21194;-70
2022/03/25 02:04:26;;;;;;;;;;;;;;;1.49;93.23;99497.44;1744089;81;20215;-69
2022/03/25 02:06:53;;;;;;;;;;;;;;;1.49;93.05;99497.97;1768329;81;20069;-68
2022/03/25 02:09:22;;;;;;;;;;;;;;;1.50;93.07;99506.36;1768186;80;20772;-69
2022/03/25 02:11:51;;;;;;;;;;;;;;;1.50;93.35;99512.59;1768343;80;20429;-69
2022/03/25 02:14:18;;;;;;;;;;;;;;;1.48;93.32;99513.38;1768236;80;21305;-70
2022/03/25 02:16:49;;;;;;;;;;;;;;;1.49;93.59;99512.84;1762989;81;20086;-70
2022/03/25 02:19:23;;;;;;;;;;;;;;;1.51;93.69;99521.52;1768282;81;20180;-69
2022/03/25 02:21:48;;;;;;;;;;;;;;;1.53;94.03;99520.73;1749534;81;20081;-69
2022/03/25 02:24:16;;;;;;;;;;;;;;;1.56;94.21;99522.92;1768505;81;20112;-69
2022/03/25 02:26:44;;;;;;;;;;;;;;;1.58;94.10;99526.19;1768536;80;22059;-70
2022/03/25 02:29:16;;;;;;;;;;;;;;;1.54;94.33;99523.18;1768219;80;20096;-69
2022/03/25 02:31:43;;;;;;;;;;;;;;;1.47;94.41;99529.34;1768202;81;20081;-70
2022/03/25 02:34:11;;;;;;;;;;;;;;;1.40;94.66;99527.91;1768194;80;20081;-69
2022/03/25 02:36:41;;;;;;;;;;;;;;;1.40;95.17;99534.14;1768238;81;20097;-69
2022/03/25 02:39:09;;;;;;;;;;;;;;;1.38;95.17;99534.11;1768297;81;21158;-70
2022/03/25 02:41:36;;;;;;;;;;;;;;;1.33;95.38;99533.52;1748682;81;20491;-69
2022/03/25 02:44:04;;;;;;;;;;;;;;;1.30;95.74;99537.55;1768253;81;20093;-69
2022/03/25 02:46:31;;;;;;;;;;;;;;;1.28;95.95;99548.34;1768275;81;20097;-71
2022/03/25 02:48:58;;;;;;;;;;;;;;;1.28;96.13;99552.41;1768299;80;20121;-71
2022/03/25 02:51:25;;;;;;;;;;;;;;;1.26;96.45;99551.30;1768290;80;21131;-71
2022/03/25 02:53:55;;;;;;;;;;;;;;;1.27;96.70;99549.42;1768277;80;20086;-70
2022/03/25 02:56:24;;;;;;;;;;;;;;;1.27;96.85;99548.88;1767382;80;20112;-72
2022/03/25 02:58:51;;;;;;;;;;;;;;;1.30;97.16;99551.08;1771820;81;20117;-70
2022/03/25 03:01:21;;;;;;;;;;;;;;;1.31;97.19;99558.13;1763693;80;20444;-70
2022/03/25 03:03:53;;;;;;;;;;;;;;;1.30;97.40;99560.55;1773102;80;21260;-69
2022/03/25 03:06:20;;;;;;;;;;;;;;;1.28;97.52;99571.34;1773328;80;20385;-69
2022/03/25 03:08:46;;;;;;;;;;;;;;;1.29;97.91;99576.49;1773147;80;20212;-69
2022/03/25 03:11:15;;;;;;;;;;;;;;;1.27;98.02;99576.47;1773118;80;20113;-69
2022/03/25 03:13:44;;;;;;;;;;;;;;;1.28;98.36;99580.80;1748049;80;20081;-69
2022/03/25 03:16:11;;;;;;;;;;;;;;;1.30;98.60;99579.48;1741774;82;21160;-69
2022/03/25 03:18:38;;;;;;;;;;;;;;;1.33;98.77;99584.38;1745364;82;20081;-69
2022/03/25 03:21:07;;;;;;;;;;;;;;;1.33;98.73;99585.73;1746745;82;20476;-70
2022/03/25 03:23:36;;;;;;;;;;;;;;;1.33;99.02;99589.79;1744052;82;20465;-70
2022/03/25 03:26:03;;;;;;;;;;;;;;;1.32;98.90;99595.45;1744935;82;20085;-70
2022/03/25 03:28:30;;;;;;;;;;;;;;;1.30;98.93;99598.41;1744446;82;21143;-68
2022/03/25 03:30:57;;;;;;;;;;;;;;;1.30;99.23;99596.23;1742590;82;20454;-67
2022/03/25 03:33:24;;;;;;;;;;;;;;;1.31;99.35;99597.87;1742648;82;20111;-69
2022/03/25 03:35:53;;;;;;;;;;;;;;;1.32;99.69;99607.09;1735241;82;20107;-69
2022/03/25 03:38:20;;;;;;;;;;;;;;;1.35;99.74;99610.36;1742570;82;20086;-69
2022/03/25 03:40:47;;;;;;;;;;;;;;;1.36;99.84;99617.40;1742569;82;21129;-68
2022/03/25 03:43:15;;;;;;;;;;;;;;;1.36;99.97;99625.52;1742407;82;20083;-70
2022/03/25 03:45:42;;;;;;;;;;;;;;;1.35;100.00;99629.29;1742468;82;20111;-66
2022/03/25 03:48:11;;;;;;;;;;;;;;;1.36;100.00;99634.98;1740112;82;20130;-69
2022/03/25 03:50:39;;;;;;;;;;;;;;;1.36;100.00;99628.22;1742285;82;20140;-67
2022/03/25 03:53:07;;;;;;;;;;;;;;;1.35;100.00;99639.58;1742424;82;21286;-66
2022/03/25 03:55:34;;;;;;;;;;;;;;;1.34;100.00;99648.76;1742407;82;20407;-67
2022/03/25 03:58:01;;;;;;;;;;;;;;;1.35;100.00;99656.34;1742635;82;20439;-68
2022/03/25 04:00:28;;;;;;;;;;;;;;;1.33;100.00;99655.23;1741826;81;20115;-68
2022/03/25 04:02:55;;;;;;;;;;;;;;;1.32;100.00;99659.83;1747615;82;20083;-71
2022/03/25 04:05:23;;;;;;;;;;;;;;;1.33;100.00;99668.77;1747906;82;21218;-68
2022/03/25 04:07:50;;;;;;;;;;;;;;;1.35;100.00;99669.33;1747924;82;20095;-66
2022/03/25 04:10:18;;;;;;;;;;;;;;;1.36;100.00;99670.14;1748018;82;20103;-67
2022/03/25 04:12:46;;;;;;;;;;;;;;;1.41;100.00;99671.02;1747767;82;20138;-68
2022/03/25 04:15:15;;;;;;;;;;;;;;;1.43;100.00;99674.83;1748069;82;20119;-67
2022/03/25 04:17:44;;;;;;;;;;;;;;;1.41;100.00;99678.32;1747974;81;21229;-69
2022/03/25 04:20:13;;;;;;;;;;;;;;;1.38;100.00;99689.64;1738084;81;20093;-70
2022/03/25 04:22:45;;;;;;;;;;;;;;;1.34;100.00;99692.03;1744249;82;20119;-70
2022/03/25 04:25:14;;;;;;;;;;;;;;;1.32;100.00;99690.94;1718304;83;20081;-71
2022/03/25 04:27:54;;;;;;;;;;;;;;;1.33;100.00;99702.03;1723448;82;20567;-71
2022/03/25 04:30:26;;;;;;;;;;;;;;;1.37;100.00;99705.06;1748086;82;21155;-69
2022/03/25 04:32:54;;;;;;;;;;;;;;;1.40;100.00;99712.67;1747871;82;20095;-66
2022/03/25 04:35:22;;;;;;;;;;;;;;;1.41;100.00;99711.60;1747551;82;20094;-66
2022/03/25 04:37:50;;;;;;;;;;;;;;;1.46;100.00;99723.02;1747154;82;20154;-67
2022/03/25 04:40:17;;;;;;;;;;;;;;;1.48;100.00;99720.88;1747911;82;20134;-69
2022/03/25 04:42:46;;;;;;;;;;;;;;;1.49;100.00;99723.88;1747875;82;21204;-67
2022/03/25 04:45:13;;;;;;;;;;;;;;;1.49;99.88;99721.16;1747431;82;20438;-67
2022/03/25 04:47:40;;;;;;;;;;;;;;;1.49;99.47;99733.34;1747988;82;20111;-66
2022/03/25 04:50:09;;;;;;;;;;;;;;;1.48;99.31;99743.88;1747869;82;20122;-68
2022/03/25 04:52:36;;;;;;;;;;;;;;;1.49;99.34;99742.81;1728805;82;20126;-71
2022/03/25 04:55:04;;;;;;;;;;;;;;;1.49;99.37;99746.33;1748022;82;21142;-71
2022/03/25 04:57:34;;;;;;;;;;;;;;;1.52;99.44;99753.12;1747875;81;20082;-66
2022/03/25 05:00:01;;;;;;;;;;;;;;;1.52;99.50;99752.59;1748008;82;20119;-66
2022/03/25 05:02:28;;;;;;;;;;;;;;;1.54;99.58;99755.05;1746504;81;20091;-65
2022/03/25 05:04:56;;;;;;;;;;;;;;;1.57;99.94;99759.95;1746942;82;20175;-68
2022/03/25 05:07:23;;;;;;;;;;;;;;;1.58;99.68;99758.89;1746883;82;21147;-67
2022/03/25 05:09:51;;;;;;;;;;;;;;;1.59;99.56;99765.94;1746692;82;20155;-67
2022/03/25 05:12:22;;;;;;;;;;;;;;;1.62;99.74;99764.08;1736048;82;20089;-69
2022/03/25 05:14:49;;;;;;;;;;;;;;;1.61;99.61;99763.27;1727810;82;20170;-69
2022/03/25 05:17:17;;;;;;;;;;;;;;;1.62;99.76;99761.38;1716993;83;20149;-69
2022/03/25 05:19:47;;;;;;;;;;;;;;;1.65;99.87;99767.64;1716686;83;21182;-68
2022/03/25 05:22:15;;;;;;;;;;;;;;;1.68;100.00;99769.84;1738274;82;20071;-70
2022/03/25 05:24:42;;;;;;;;;;;;;;;1.72;100.00;99764.21;1746261;82;20139;-73
2022/03/25 05:27:09;;;;;;;;;;;;;;;1.75;100.00;99770.44;1746414;82;20138;-68
2022/03/25 05:29:36;;;;;;;;;;;;;;;1.75;100.00;99782.62;1746736;82;20138;-68
2022/03/25 05:32:04;;;;;;;;;;;;;;;1.77;100.00;99783.19;1746822;82;21154;-69
2022/03/25 05:34:33;;;;;;;;;;;;;;;1.80;100.00;99793.52;1746696;82;20107;-70
2022/03/25 05:36:59;;;;;;;;;;;;;;;1.85;100.00;99797.63;1746756;82;20131;-69
2022/03/25 05:39:26;;;;;;;;;;;;;;;1.91;100.00;99801.22;1746962;82;20466;-69
2022/03/25 05:41:53;;;;;;;;;;;;;;;1.96;100.00;99806.70;1746932;82;20119;-68
2022/03/25 05:44:22;;;;;;;;;;;;;;;2.02;100.00;99811.10;1747029;82;21291;-67
2022/03/25 05:46:51;;;;;;;;;;;;;;;2.07;100.00;99819.82;1746596;82;20083;-68
2022/03/25 05:49:18;;;;;;;;;;;;;;;2.09;100.00;99819.03;1746756;82;20126;-69
2022/03/25 05:51:45;;;;;;;;;;;;;;;2.11;100.00;99819.59;1746817;82;20096;-68
2022/03/25 05:54:12;;;;;;;;;;;;;;;2.12;100.00;99826.65;1747048;82;20087;-68
2022/03/25 05:56:39;;;;;;;;;;;;;;;2.13;100.00;99832.35;1747047;82;20721;-65
2022/03/25 05:59:06;;;;;;;;;;;;;;;2.17;100.00;99840.25;1746946;82;20119;-66
2022/03/25 06:01:33;;;;;;;;;;;;;;;2.23;100.00;99838.70;1747101;82;20118;-67
2022/03/25 06:04:01;;;;;;;;;;;;;;;2.32;100.00;99842.56;1746837;82;20087;-66
2022/03/25 06:06:30;;;;;;;;;;;;;;;2.45;100.00;99837.28;1747272;82;20407;-68
2022/03/25 06:08:58;;;;;;;;;;;;;;;2.63;100.00;99850.48;1747021;82;20123;-68
2022/03/25 06:11:26;;;;;;;;;;;;;;;2.79;100.00;99849.27;1747044;82;20095;-69
2022/03/25 06:13:53;;;;;;;;;;;;;;;2.92;100.00;99846.11;1747096;82;20155;-70
2022/03/25 06:16:21;;;;;;;;;;;;;;;3.08;100.00;99845.16;1747079;82;20458;-72
2022/03/25 06:18:49;;;;;;;;;;;;;;;3.28;100.00;99854.00;1747092;82;20218;-66
2022/03/25 06:21:17;;;;;;;;;;;;;;;3.49;100.00;99855.75;1747205;82;20648;-67
2022/03/25 06:23:46;;;;;;;;;;;;;;;3.73;100.00;99865.67;1746903;82;20099;-68
2022/03/25 06:26:12;;;;;;;;;;;;;;;3.94;99.54;99864.70;1746971;82;20118;-70
2022/03/25 06:28:41;;;;;;;;;;;;;;;4.13;98.22;99875.90;1746917;82;20154;-70
2022/03/25 06:31:08;;;;;;;;;;;;;;;4.25;96.94;99875.13;1746920;82;20123;-72
2022/03/25 06:33:37;;;;;;;;;;;;;;;4.38;96.34;99877.90;1746990;82;21137;-70
2022/03/25 06:36:05;;;;;;;;;;;;;;;4.47;95.50;99880.38;1746480;82;20435;-69
2022/03/25 06:38:34;;;;;;;;;;;;;;;4.59;94.14;99884.22;1746983;82;20083;-68
2022/03/25 06:41:02;;;;;;;;;;;;;;;4.64;93.24;99893.17;1747068;82;20435;-70
2022/03/25 06:43:29;;;;;;;;;;;;;;;4.65;91.34;99888.02;1746938;82;20079;-66
2022/03/25 06:45:56;;;;;;;;;;;;;;;4.65;91.53;99885.83;1747147;82;20746;-72
2022/03/25 06:48:25;;;;;;;;;;;;;;;4.73;91.10;99888.58;1746932;82;20082;-68
2022/03/25 06:50:55;;;;;;;;;;;;;;;4.82;91.00;99895.94;1747264;82;20410;-72
2022/03/25 06:53:23;;;;;;;;;;;;;;;4.94;90.29;99900.59;1746961;82;20115;-69
2022/03/25 06:55:52;;;;;;;;;;;;;;;5.08;89.69;99909.04;1741892;82;20083;-72
2022/03/25 06:58:20;;;;;;;;;;;;;;;5.18;87.85;99911.77;1746920;82;20755;-70
2022/03/25 07:00:47;;;;;;;;;;;;;;;5.24;86.79;99912.56;1723872;82;20118;-69
2022/03/25 07:03:16;;;;;;;;;;;;;;;5.29;85.41;99916.65;1747363;82;20075;-69
2022/03/25 07:05:43;;;;;;;;;;;;;;;5.35;84.65;99920.19;1747981;82;20119;-67
2022/03/25 07:08:11;;;;;;;;;;;;;;;5.37;82.57;99920.19;1747811;82;20097;-69
2022/03/25 07:10:41;;;;;;;;;;;;;;;5.43;82.26;99922.37;1748006;82;20127;-69
2022/03/25 07:13:11;;;;;;;;;;;;;;;5.50;82.08;99925.09;1748099;82;20118;-69
2022/03/25 07:15:38;;;;;;;;;;;;;;;5.58;79.88;99922.36;1748059;82;20095;-67
2022/03/25 07:18:05;;;;;;;;;;;;;;;5.61;77.42;99928.08;1727277;82;20118;-67
2022/03/25 07:20:32;;;;;;;;;;;;;;;5.64;77.16;99932.98;1747732;82;20082;-68
2022/03/25 07:23:02;;;;;;;;;;;;;;;5.76;77.45;99939.51;1744942;82;20115;-68
2022/03/25 07:25:29;;;;;;;;;;;;;;;6.05;77.27;99938.92;1747958;82;20071;-68
2022/03/25 07:27:58;;;;;;;;;;;;;;;6.45;76.37;99940.13;1748090;82;32401;-68
2022/03/25 07:30:25;;;;;;;;;;;;;;;6.89;73.63;99930.64;1747169;82;20138;-69
2022/03/25 07:32:55;;;;;;;;;;;;;;;7.24;70.82;99936.40;1746640;82;20445;-68
2022/03/25 07:35:22;;;;;;;;;;;;;;;7.53;68.20;99932.87;1747947;82;21116;-70
2022/03/25 07:37:49;;;;;;;;;;;;;;;7.72;66.34;99940.63;1748081;82;20434;-68
2022/03/25 07:40:17;;;;;;;;;;;;;;;7.88;66.04;99936.66;1747915;82;20095;-68
2022/03/25 07:42:46;;;;;;;;;;;;;;;8.05;61.81;99935.41;1747932;82;20123;-68
2022/03/25 07:45:17;;;;;;;;;;;;;;;8.18;61.09;99938.78;1748091;82;20079;-68
2022/03/25 07:47:48;;;;;;;;;;;;;;;8.27;60.68;99939.23;1748178;82;20123;-72
2022/03/25 07:50:18;;;;;;;;;;;;;;;8.32;59.54;99944.38;1748488;81;20095;-73
2022/03/25 07:52:49;;;;;;;;;;;;;;;8.42;58.53;99953.88;1748078;82;20135;-71
2022/03/25 07:55:17;;;;;;;;;;;;;;;8.52;58.25;99951.02;1748014;82;20119;-67
2022/03/25 07:57:44;;;;;;;;;;;;;;;8.73;60.04;99952.92;1747956;82;20082;-69
2022/03/25 08:00:12;;;;;;;;;;;;;;;9.16;57.95;99960.55;1748091;82;21221;-67
2022/03/25 08:02:41;;;;;;;;;;;;;;;9.40;54.55;99947.55;1747556;82;20096;-66
2022/03/25 08:05:10;;;;;;;;;;;;;;;9.51;53.86;99953.13;1745027;82;20184;-71
2022/03/25 08:07:48;;;;;;;;;;;;;;;9.60;52.60;99952.70;1744813;82;20443;-64
2022/03/25 08:10:19;;;;;;;;;;;;;;;9.62;53.63;99952.41;1745077;82;20427;-64
2022/03/25 08:12:49;;;;;;;;;;;;;;;9.71;53.01;99958.02;1744819;82;20134;-64
2022/03/25 08:15:17;;;;;;;;;;;;;;;9.75;52.81;99948.90;1744780;82;20135;-66
2022/03/25 08:17:48;;;;;;;;;;;;;;;9.91;52.33;99959.83;1744820;82;20111;-65
2022/03/25 08:20:24;;;;;;;;;;;;;;;10.18;51.44;99968.67;1744903;82;20416;-64
2022/03/25 08:22:52;;;;;;;;;;;;;;;10.42;51.13;99960.27;1744881;82;20095;-71
2022/03/25 08:28:05;;;;;;;;;;;;;;;10.66;49.87;99970.23;1744759;82;20419;-63
2022/03/25 08:30:32;;;;;;;;;;;;;;;10.82;48.50;99972.92;1744695;82;20107;-68
2022/03/25 08:33:01;;;;;;;;;;;;;;;11.02;47.37;99982.07;1744794;82;20450;-73
2022/03/25 08:35:42;;;;;;;;;;;;;;;11.11;46.66;99978.84;1744716;82;20080;-69
2022/03/25 08:37:58;;;;;;;;;;;;;;;11.07;46.94;99973.72;1738239;82;20741;-70
2022/03/25 08:40:25;;;;;;;;;;;;;;;11.16;47.08;99975.98;1744663;82;20115;-68
2022/03/25 08:42:53;;;;;;;;;;;;;;;11.40;44.96;99973.53;1723800;82;20119;-69
2022/03/25 08:45:20;;;;;;;;;;;;;;;11.49;43.87;99972.48;1744714;82;20146;-70
2022/03/25 08:47:48;;;;;;;;;;;;;;;11.45;44.29;99978.35;1744756;82;20146;-66
2022/03/25 08:50:16;;;;;;;;;;;;;;;11.51;42.58;99969.42;1744728;82;21144;-70
2022/03/25 08:52:44;;;;;;;;;;;;;;;11.52;43.34;99977.36;1744763;82;20095;-65
2022/03/25 08:55:12;;;;;;;;;;;;;;;11.40;41.69;99976.28;1744770;82;20107;-66
2022/03/25 08:57:39;;;;;;;;;;;;;;;11.17;42.79;99983.11;1744848;82;20128;-71
2022/03/25 09:00:10;;;;;;;;;;;;;;;11.07;42.18;99989.39;1744999;82;20083;-70
2022/03/25 09:02:38;;;;;;;;;;;;;;;11.06;43.10;99983.08;1744876;82;21057;-73
2022/03/25 09:05:08;;;;;;;;;;;;;;;11.27;43.30;99978.52;1746686;82;20193;-72
2022/03/25 09:07:36;;;;;;;;;;;;;;;11.58;42.13;99980.20;1747008;82;20127;-74
2022/03/25 09:10:08;;;;;;;;;;;;;;;11.83;41.71;99982.94;1746822;82;20425;-69
2022/03/25 09:12:36;;;;;;;;;;;;;;;12.05;41.46;99978.54;1746953;82;20091;-81
2022/03/25 09:15:06;;;;;;;;;;;;;;;12.07;39.67;99977.10;1747040;82;20091;-70
2022/03/25 09:17:35;;;;;;;;;;;;;;;11.93;40.27;99971.42;1746763;82;20083;-69
2022/03/25 09:20:03;;;;;;;;;;;;;;;11.90;42.20;99982.49;1746907;82;20154;-70
2022/03/25 09:22:31;;;;;;;;;;;;;;;12.16;42.40;99979.30;1746901;82;20462;-70
2022/03/25 09:25:01;;;;;;;;;;;;;;;12.53;42.63;99983.53;1746984;82;20083;-69
2022/03/25 09:27:28;;;;;;;;;;;;;;;12.89;41.17;99991.58;1746871;82;21225;-71
2022/03/25 09:29:59;;;;;;;;;;;;;;;13.11;40.32;99987.89;1746655;82;20150;-68
2022/03/25 09:32:29;;;;;;;;;;;;;;;13.19;40.74;99995.40;1745370;82;20099;-70
2022/03/25 09:35:13;;;;;;;;;;;;;;;13.17;38.80;99996.29;1746882;82;20095;-66
2022/03/25 09:37:46;;;;;;;;;;;;;;;13.25;40.84;99991.92;1746167;82;20130;-68
2022/03/25 09:40:15;;;;;;;;;;;;;;;13.50;39.22;99993.05;1746898;82;21163;-68
2022/03/25 09:42:41;;;;;;;;;;;;;;;13.50;39.12;100002.70;1746781;82;20083;-69
2022/03/25 09:45:10;;;;;;;;;;;;;;;13.57;38.74;99997.52;1746942;82;20111;-70
2022/03/25 09:47:37;;;;;;;;;;;;;;;13.67;38.00;99997.19;1746846;82;20162;-69
2022/03/25 09:50:15;;;;;;;;;;;;;;;;;;;;;
2022/03/25 09:52:34;;;;;;;;;;;;;;;13.68;38.33;100005.70;1743297;82;21163;-68
2022/03/25 09:55:01;;;;;;;;;;;;;;;13.94;38.40;100007.61;1747023;82;20445;-68
2022/03/25 09:57:29;;;;;;;;;;;;;;;14.05;37.62;100011.66;1746788;82;20445;-70
2022/03/25 09:59:56;;;;;;;;;;;;;;;13.99;37.36;100004.68;1746835;82;20083;-73
2022/03/25 10:02:24;;;;;;;;;;;;;;;13.95;37.37;100008.66;1746885;82;20083;-73
2022/03/25 10:04:53;;;;;;;;;;;;;;;14.03;36.94;100005.65;1746723;82;20087;-72
2022/03/25 10:07:23;;;;;;;;;;;;;;;14.25;37.15;100008.20;1746890;82;20139;-73
2022/03/25 10:10:09;;;;;;;;;;;;;;;14.46;37.19;100003.59;1746799;82;20446;-73
2022/03/25 10:12:39;;;;;;;;;;;;;;;14.53;35.78;100001.13;1747132;82;20531;-73
2022/03/25 10:15:22;;;;;;;;;;;;;;;14.37;36.81;99998.67;1746762;82;20146;-73
2022/03/25 10:18:00;;;;;;;;;;;;;;;14.31;36.59;99999.98;1746629;82;21170;-72
2022/03/25 10:20:42;;;;;;;;;;;;;;;14.62;36.57;100009.39;1746719;82;20142;-72
2022/03/25 10:23:21;;;;;;;;;;;;;;;15.04;34.52;100006.72;1747027;82;20433;-70
2022/03/25 10:25:51;;;;;;;;;;;;;;;15.18;33.92;100014.20;1746498;82;20147;-71
2022/03/25 10:28:44;;;;;;;;;;;;;;;15.11;33.47;100002.86;1747003;82;20474;-70
2022/03/25 10:31:17;;;;;;;;;;;;;;;14.82;32.99;100002.31;1745472;82;21166;-71
2022/03/25 10:33:47;;;;;;;;;;;;;;;14.74;35.13;100011.45;1746541;82;20098;-72
2022/03/25 10:36:15;;;;;;;;;;;;;;;14.80;34.55;100012.89;1746993;82;20118;-69
2022/03/25 10:38:54;;;;;;;;;;;;;;;14.78;35.05;100015.98;1747330;82;20091;-70
2022/03/25 10:41:23;;;;;;;;;;;;;;;14.76;34.21;100014.70;1746995;82;20166;-68
2022/03/25 10:44:03;;;;;;;;;;;;;;;14.75;33.60;100016.65;1747173;82;21141;-69
2022/03/25 10:46:33;;;;;;;;;;;;;;;14.58;33.41;100004.86;1746994;82;20095;-69
2022/03/25 10:49:01;;;;;;;;;;;;;;;14.58;34.81;100000.14;1747272;82;20095;-70
2022/03/25 10:51:29;;;;;;;;;;;;;;;14.88;35.03;100012.04;1746970;82;20095;-70
2022/03/25 10:54:01;;;;;;;;;;;;;;;15.30;34.58;100012.09;1747003;82;20150;-70
2022/03/25 10:56:27;;;;;;;;;;;;;;;15.49;32.20;100005.53;1723859;82;21238;-71
2022/03/25 10:58:56;;;;;;;;;;;;;;;15.35;33.43;100007.75;1746968;82;20119;-67
2022/03/25 11:01:23;;;;;;;;;;;;;;;15.50;33.36;99998.85;1747003;82;20083;-70
2022/03/25 11:03:51;;;;;;;;;;;;;;;15.70;33.24;100002.19;1746893;82;20106;-71
2022/03/25 11:06:18;;;;;;;;;;;;;;;15.89;33.79;99998.12;1746966;82;20134;-69
2022/03/25 11:08:46;;;;;;;;;;;;;;;16.07;33.41;99987.11;1746963;82;21146;-68
2022/03/25 11:11:15;;;;;;;;;;;;;;;16.18;30.94;99996.00;1747027;82;20406;-67
2022/03/25 11:13:45;;;;;;;;;;;;;;;15.92;30.75;100002.41;1747004;82;20091;-68
2022/03/25 11:16:14;;;;;;;;;;;;;;;15.40;31.24;99993.14;1747203;82;20123;-69
2022/03/25 11:18:43;;;;;;;;;;;;;;;15.03;31.81;99995.42;1723149;82;20466;-68
2022/03/25 11:21:12;;;;;;;;;;;;;;;14.89;31.47;99996.27;1747112;82;21143;-69
2022/03/25 11:23:46;;;;;;;;;;;;;;;14.85;32.55;99996.13;1746943;82;20419;-67
2022/03/25 11:26:17;;;;;;;;;;;;;;;15.10;33.17;99988.22;1746973;82;20083;-67
2022/03/25 11:28:46;;;;;;;;;;;;;;;15.65;32.85;100000.20;1747063;82;20135;-66
2022/03/25 11:31:13;;;;;;;;;;;;;;;16.13;31.48;99998.21;1746923;82;20119;-66
2022/03/25 11:34:09;;;;;;;;;;;;;;;16.37;29.67;99994.09;1746927;82;21193;-66
2022/03/25 11:36:33;;;;;;;;;;;;;;;16.41;30.48;99992.83;1746528;82;20103;-68
2022/03/25 11:39:24;;;;;;;;;;;;;;;16.39;30.55;99998.71;1746930;82;20433;-69
2022/03/25 11:41:53;;;;;;;;;;;;;;;16.54;30.17;99993.66;1747056;82;20796;-71
2022/03/25 11:44:23;;;;;;;;;;;;;;;16.58;29.70;99993.20;1747322;82;20083;-69
2022/03/25 11:47:03;;;;;;;;;;;;;;;16.57;30.62;99991.58;1724238;82;21127;-64
2022/03/25 11:49:31;;;;;;;;;;;;;;;16.58;30.44;99993.20;1747002;82;20111;-68
2022/03/25 11:52:18;;;;;;;;;;;;;;;16.56;29.55;99993.54;1746909;82;20445;-68
2022/03/25 11:54:47;;;;;;;;;;;;;;;16.79;28.97;99993.91;1746969;82;20083;-67
2022/03/25 11:57:31;;;;;;;;;;;;;;;16.85;28.62;99992.52;1699370;82;20438;-64
2022/03/25 12:00:01;;;;;;;;;;;;;;;16.75;29.40;99997.17;1747322;82;21104;-64
2022/03/25 12:02:35;;;;;;;;;;;;;;;16.66;29.40;99999.24;1723124;82;20106;-66
2022/03/25 12:05:03;;;;;;;;;;;;;;;16.77;29.27;99994.83;1746923;82;20094;-67
2022/03/25 12:07:30;;;;;;;;;;;;;;;16.70;29.33;99998.78;1746899;82;20091;-70
2022/03/25 12:09:56;;;;;;;;;;;;;;;16.70;29.50;99990.47;1746892;82;20155;-68
2022/03/25 12:12:51;;;;;;;;;;;;;;;16.85;30.33;99986.98;1746941;82;21138;-68
2022/03/25 12:15:20;;;;;;;;;;;;;;;16.80;30.67;99985.82;1746977;82;20098;-64
2022/03/25 12:17:50;;;;;;;;;;;;;;;16.65;30.37;99988.73;1746853;82;20108;-66
2022/03/25 12:20:21;;;;;;;;;;;;;;;16.64;30.18;99989.89;1746854;82;20154;-65
2022/03/25 12:22:48;;;;;;;;;;;;;;;16.57;30.72;99994.35;1740780;82;20110;-68
2022/03/25 12:25:17;;;;;;;;;;;;;;;16.30;31.27;100003.53;1746905;82;22068;-68
2022/03/25 12:27:45;;;;;;;;;;;;;;;16.18;30.70;99996.00;1746953;82;20095;-70
2022/03/25 12:30:12;;;;;;;;;;;;;;;15.94;31.11;99998.72;1746909;82;20099;-68
2022/03/25 12:36:31;;;;;;;;;;;;;;;16.03;31.30;99995.87;1746921;82;20454;-68
2022/03/25 12:39:10;;;;;;;;;;;;;;;16.21;31.41;99995.89;1745953;82;20119;-70
2022/03/25 12:41:38;;;;;;;;;;;;;;;16.24;31.54;99995.78;1745643;82;20130;-71
2022/03/25 12:44:14;;;;;;;;;;;;;;;16.36;30.80;99990.27;1746845;82;20450;-71
2022/03/25 12:46:45;;;;;;;;;;;;;;;16.64;29.74;99993.20;1746145;82;20091;-69
2022/03/25 12:49:22;;;;;;;;;;;;;;;16.64;29.05;99998.20;1746770;82;20438;-70
2022/03/25 12:52:00;;;;;;;;;;;;;;;16.61;29.30;99989.73;1720162;82;21314;-69
2022/03/25 12:54:33;;;;;;;;;;;;;;;16.86;29.08;99990.56;1747216;82;20738;-70
2022/03/25 12:57:07;;;;;;;;;;;;;;;16.98;28.24;99992.75;1742768;82;20083;-70
2022/03/25 12:59:39;;;;;;;;;;;;;;;16.82;27.99;99991.25;1745783;82;20137;-69
2022/03/25 13:02:15;;;;;;;;;;;;;;;16.73;28.74;99980.88;1746855;82;20446;-72
2022/03/25 13:04:57;;;;;;;;;;;;;;;17.00;28.25;99982.70;1723348;82;20503;-73
2022/03/25 13:07:25;;;;;;;;;;;;;;;16.95;29.25;99989.29;1745914;82;20399;-63
2022/03/25 13:09:55;;;;;;;;;;;;;;;16.86;28.91;99989.17;1697252;82;20455;-67